createdAt,value
2023-02-05T00:04:34.845Z,55.86
2023-02-05T00:14:38.724Z,55.36
2023-02-05T00:24:42.507Z,54.79
2023-02-05T00:34:46.359Z,54.74
2023-02-05T00:44:50.207Z,55.40
2023-02-05T00:54:54.053Z,55.50
2023-02-05T01:04:58.095Z,55.75
2023-02-05T01:15:08.996Z,55.94
2023-02-05T01:25:13.316Z,56.03
2023-02-05T01:35:17.246Z,56.33
2023-02-05T01:45:29.854Z,56.09
2023-02-05T01:55:56.754Z,55.82
2023-02-05T02:06:05.070Z,55.71
2023-02-05T02:16:09.468Z,55.55
2023-02-05T02:26:22.648Z,55.61
2023-02-05T02:36:32.432Z,55.34
2023-02-05T02:46:41.897Z,55.68
2023-02-05T02:56:49.447Z,55.60
2023-02-05T03:06:58.090Z,55.34
2023-02-05T03:17:04.113Z,55.73
2023-02-05T03:27:08.334Z,55.64
2023-02-05T03:37:31.596Z,55.74
2023-02-05T03:48:01.666Z,55.64
2023-02-05T03:58:17.833Z,55.76
2023-02-05T04:08:22.942Z,56.09
2023-02-05T04:18:28.637Z,55.26
2023-02-05T04:28:33.230Z,55.29
2023-02-05T04:38:38.440Z,55.09
2023-02-05T04:48:42.096Z,54.97
2023-02-05T04:58:46.621Z,55.10
2023-02-05T05:08:50.721Z,54.75
2023-02-05T05:18:54.638Z,55.32
2023-02-05T05:29:26.090Z,55.25
2023-02-05T05:39:48.814Z,55.03
2023-02-05T05:50:33.484Z,54.71
2023-02-05T06:00:39.170Z,54.84
2023-02-05T06:10:49.812Z,54.92
2023-02-05T06:21:06.129Z,54.91
2023-02-05T06:31:12.470Z,55.07
2023-02-05T06:41:16.752Z,55.29
2023-02-05T06:51:20.950Z,55.40
2023-02-05T07:01:24.868Z,54.68
2023-02-05T07:11:28.710Z,54.42
2023-02-05T07:21:33.170Z,53.74
2023-02-05T07:32:01.166Z,53.37
2023-02-05T07:42:05.523Z,53.07
2023-02-05T07:52:14.067Z,52.30
2023-02-05T08:02:18.411Z,51.72
2023-02-05T08:12:22.528Z,51.51
2023-02-05T08:22:26.381Z,51.52
2023-02-05T08:32:30.375Z,51.51
2023-02-05T08:42:36.937Z,51.99
2023-02-05T08:52:41.602Z,53.13
2023-02-05T09:02:45.412Z,53.43
2023-02-05T09:12:52.204Z,54.09
2023-02-05T09:22:56.018Z,54.24
2023-02-05T09:32:59.915Z,54.04
2023-02-05T09:43:07.943Z,53.33
2023-02-05T09:53:18.219Z,52.66
2023-02-05T10:03:28.267Z,52.34
2023-02-05T10:13:45.313Z,52.89
2023-02-05T10:24:32.446Z,52.76
2023-02-05T10:34:49.579Z,52.67
2023-02-05T10:45:25.529Z,52.46
2023-02-05T10:55:29.488Z,52.35
2023-02-05T11:05:40.733Z,51.84
2023-02-05T11:16:00.996Z,51.61
2023-02-05T11:26:18.316Z,51.29
2023-02-05T11:36:25.478Z,50.78
2023-02-05T11:46:42.940Z,50.27
2023-02-05T11:57:05.616Z,49.70
2023-02-05T12:07:15.818Z,49.45
2023-02-05T12:17:34.993Z,48.61
2023-02-05T12:28:00.247Z,48.51
2023-02-05T12:38:38.325Z,49.02
2023-02-05T12:49:10.619Z,49.39
2023-02-05T12:59:33.299Z,49.26
2023-02-05T13:09:54.109Z,49.21
2023-02-05T13:20:18.176Z,49.14
2023-02-05T13:30:28.613Z,49.11
2023-02-05T13:40:44.107Z,49.62
2023-02-05T13:50:57.004Z,50.07
2023-02-05T14:01:32.288Z,49.86
2023-02-05T14:11:58.340Z,50.19
2023-02-05T14:22:07.644Z,50.64
2023-02-05T14:32:39.842Z,51.05
2023-02-05T14:42:43.482Z,50.84
2023-02-05T14:52:54.315Z,50.69
2023-02-05T15:03:01.054Z,50.42
2023-02-05T15:13:15.415Z,50.57
2023-02-05T15:23:46.650Z,51.01
2023-02-05T15:34:20.825Z,51.14
2023-02-05T15:44:30.434Z,51.64
2023-02-05T15:54:37.154Z,52.02
2023-02-05T16:04:41.169Z,52.44
2023-02-05T16:14:45.024Z,52.61
2023-02-05T16:24:51.903Z,52.25
2023-02-05T16:34:56.841Z,52.26
2023-02-05T16:45:21.904Z,52.49
2023-02-05T16:55:26.122Z,52.70
2023-02-05T17:05:35.816Z,52.41
2023-02-05T17:15:40.721Z,52.32
2023-02-05T17:25:47.233Z,52.27
2023-02-05T17:35:51.751Z,52.18
2023-02-05T17:45:55.475Z,52.14
2023-02-05T17:55:59.393Z,52.02
2023-02-05T18:06:03.338Z,52.30
2023-02-05T18:16:07.698Z,52.60
2023-02-05T18:26:11.768Z,52.78
2023-02-05T18:36:15.822Z,53.53
2023-02-05T18:46:21.462Z,53.81
2023-02-05T18:56:27.954Z,53.99
2023-02-05T19:06:33.340Z,54.13
2023-02-05T19:16:40.167Z,54.19
